Time;durP1;ratioP1;P1;durP2;ratioP2;P2;SDS_P1;SDS_P2;PMS_P1;PMS_P2;Temp;Humidity;BMP_temperature;BMP_pressure;BME280_temperature;BME280_humidity;BME280_pressure;Samples;Min_cycle;Max_cycle;Signal;HPM_P1;HPM_P2
2023/02/07 00:01:16;;;;;;;22.70;12.00;;;-3.80;99.90;;;-5.54;100.00;103343.09;4993296;28;20030;-71
2023/02/07 00:03:44;;;;;;;23.95;12.68;;;-3.80;99.90;;;-5.65;100.00;103340.75;4992472;28;20061;-71
2023/02/07 00:06:16;;;;;;;21.10;11.27;;;-3.80;99.90;;;-5.73;100.00;103344.53;4992612;28;20113;-71
2023/02/07 00:08:43;;;;;;;23.88;11.38;;;-3.90;99.90;;;-5.76;100.00;103340.19;4993886;28;20038;-71
2023/02/07 00:11:15;;;;;;;27.67;13.32;;;-4.00;99.90;;;-5.73;100.00;103339.22;4992973;28;20458;-71
2023/02/07 00:13:43;;;;;;;27.98;12.73;;;-3.90;99.90;;;-5.79;100.00;103340.28;4993417;28;20125;-71
2023/02/07 00:16:09;;;;;;;;;;;-3.90;99.90;;;-5.87;100.00;103331.63;5008289;28;20038;-72
2023/02/07 00:18:36;;;;;;;24.45;11.23;;;-4.00;99.90;;;-5.90;100.00;103321.97;4992807;28;19965;-73
2023/02/07 00:21:22;;;;;;;23.02;11.73;;;-4.10;99.90;;;-6.02;100.00;103317.91;4993063;28;20474;-71
2023/02/07 00:23:49;;;;;;;24.90;11.48;;;-4.30;99.90;;;-6.16;100.00;103323.59;4993446;28;20046;-72
2023/02/07 00:26:18;;;;;;;22.30;11.13;;;-4.30;99.90;;;-6.23;100.00;103327.34;4992349;28;20034;-71
2023/02/07 00:28:45;;;;;;;24.30;11.88;;;-4.40;99.90;;;-6.27;100.00;103317.66;4993271;28;20038;-71
2023/02/07 00:31:20;;;;;;;24.35;11.30;;;-4.50;99.90;;;-6.29;100.00;103315.06;4993625;28;20128;-71
2023/02/07 00:33:48;;;;;;;24.35;10.88;;;-4.50;99.90;;;-6.31;100.00;103313.34;4993305;28;20030;-72
2023/02/07 00:36:18;;;;;;;;;;;-4.60;99.90;;;-6.39;100.00;103319.75;4988941;28;20390;-71
2023/02/07 00:38:45;;;;;;;24.92;11.63;;;-4.60;99.90;;;-6.48;100.00;103311.16;4993065;28;19917;-71
2023/02/07 00:41:17;;;;;;;25.33;11.73;;;-4.60;99.90;;;-6.47;100.00;103311.13;5002172;28;20053;-71
2023/02/07 00:43:45;;;;;;;22.73;11.02;;;-4.70;99.90;;;-6.56;100.00;103316.66;4996883;28;20038;-71
2023/02/07 00:46:11;;;;;;;25.23;11.18;;;-4.70;99.90;;;-6.62;100.00;103323.00;5004172;28;20045;-71
2023/02/07 00:48:40;;;;;;;24.67;12.40;;;-4.80;99.90;;;-6.62;100.00;103317.69;4996651;28;20061;-72
2023/02/07 00:51:09;;;;;;;22.55;11.85;;;-4.80;99.90;;;-6.60;100.00;103321.19;5006523;28;20087;-72
2023/02/07 00:53:35;;;;;;;23.55;12.07;;;-4.80;99.90;;;-6.68;100.00;103317.84;4995735;28;20052;-72
2023/02/07 00:56:01;;;;;;;24.02;11.85;;;-4.90;99.90;;;-6.79;100.00;103320.75;4996264;28;20054;-72
2023/02/07 00:58:29;;;;;;;23.10;11.23;;;-5.00;99.90;;;-6.86;100.00;103321.81;5001761;28;20026;-71
2023/02/07 01:00:54;;;;;;;22.80;11.60;;;-5.00;99.90;;;-6.88;100.00;103311.25;5007479;28;20590;-71
2023/02/07 01:03:20;;;;;;;24.95;11.95;;;-5.10;99.90;;;-6.86;100.00;103300.56;4992846;28;20034;-71
2023/02/07 01:05:46;;;;;;;25.40;11.00;;;-5.10;99.90;;;-6.76;100.00;103311.84;4992702;28;20409;-71
2023/02/07 01:08:12;;;;;;;25.42;11.77;;;-5.00;99.90;;;-6.72;100.00;103313.50;4995344;28;20038;-71
2023/02/07 01:10:40;;;;;;;26.50;12.25;;;-4.90;99.90;;;-6.65;100.00;103307.13;4999971;28;20045;-71
2023/02/07 01:13:10;;;;;;;27.90;12.45;;;-4.80;99.90;;;-6.56;100.00;103309.56;4994885;28;20035;-71
2023/02/07 01:15:38;;;;;;;25.45;11.60;;;-4.80;99.90;;;-6.59;100.00;103291.06;4991795;28;20080;-71
2023/02/07 01:18:05;;;;;;;25.35;12.27;;;-4.80;99.90;;;-6.69;100.00;103295.72;4992652;28;20038;-70
2023/02/07 01:20:31;;;;;;;25.52;12.10;;;-4.90;99.90;;;-6.64;100.00;103295.59;4991652;28;20117;-72
2023/02/07 01:22:57;;;;;;;25.35;11.98;;;-4.90;99.90;;;-6.69;100.00;103297.50;5007066;28;20124;-73
2023/02/07 01:25:23;;;;;;;25.02;12.80;;;-4.90;99.90;;;-6.77;100.00;103281.75;4994218;28;20034;-72
2023/02/07 01:27:50;;;;;;;26.38;13.13;;;-5.00;99.90;;;-6.85;100.00;103286.38;4996783;28;20418;-71
2023/02/07 01:30:16;;;;;;;24.92;11.88;;;-5.00;99.90;;;-6.72;100.00;103284.28;4991448;28;20398;-72
2023/02/07 01:32:41;;;;;;;24.90;12.23;;;-4.90;99.90;;;-6.56;100.00;103268.84;5010175;28;20045;-71
2023/02/07 01:35:08;;;;;;;32.13;14.68;;;-4.70;99.90;;;-6.21;100.00;103257.25;4998910;28;20038;-72
2023/02/07 01:37:34;;;;;;;31.70;15.43;;;-4.40;99.90;;;-5.41;100.00;103255.78;4998377;28;20034;-71
2023/02/07 01:39:59;;;;;;;36.33;16.13;;;-3.90;99.90;;;-5.15;100.00;103250.56;4996037;28;20045;-70
2023/02/07 01:42:28;;;;;;;36.75;16.65;;;-3.40;99.90;;;-4.97;100.00;103251.75;5005109;28;20117;-71
2023/02/07 01:44:54;;;;;;;39.23;17.57;;;-3.20;99.90;;;-4.88;100.00;103238.13;4997387;28;20046;-71
2023/02/07 01:47:23;;;;;;;40.97;18.45;;;-3.10;99.90;;;-4.82;100.00;103240.56;4995435;28;20338;-72
2023/02/07 01:49:54;;;;;;;35.03;16.92;;;-3.00;99.90;;;-4.79;100.00;103234.28;4995795;28;20521;-71
2023/02/07 01:52:31;;;;;;;37.22;17.65;;;-3.00;99.90;;;-4.83;100.00;103230.84;5007700;28;20042;-72
2023/02/07 01:55:07;;;;;;;40.15;17.27;;;-3.00;99.90;;;-4.89;100.00;103230.19;4996168;28;20173;-71
2023/02/07 01:57:35;;;;;;;40.60;18.52;;;-3.00;99.90;;;-4.84;100.00;103229.09;4996059;28;20038;-72
2023/02/07 02:00:03;;;;;;;43.15;18.83;;;-3.00;99.90;;;-4.79;100.00;103236.94;4994972;28;20461;-72
2023/02/07 02:02:33;;;;;;;45.30;19.30;;;-2.90;99.90;;;-4.79;100.00;103243.13;4998974;28;20042;-71
2023/02/07 02:04:59;;;;;;;43.40;18.90;;;-2.90;99.90;;;-4.80;100.00;103241.38;5006166;28;20090;-71
2023/02/07 02:07:28;;;;;;;46.70;18.95;;;-2.90;99.90;;;-4.79;100.00;103242.25;5006628;28;20038;-71
2023/02/07 02:09:54;;;;;;;45.55;19.83;;;-2.90;99.90;;;-4.77;100.00;103254.63;4995942;28;20041;-72
2023/02/07 02:12:43;;;;;;;36.25;17.85;;;-2.90;99.90;;;-4.77;100.00;103262.63;5010931;28;20042;-72
2023/02/07 02:15:40;;;;;;;42.42;18.15;;;-2.90;99.90;;;-4.77;100.00;103245.75;4995705;28;20125;-71
2023/02/07 02:18:36;;;;;;;44.50;18.35;;;-2.90;99.90;;;-4.74;100.00;103250.97;4994811;28;20062;-72
2023/02/07 02:21:42;;;;;;;44.17;18.48;;;-2.90;99.90;;;-4.81;100.00;103252.09;4996063;28;20046;-72
2023/02/07 02:25:03;;;;;;;42.60;17.33;;;-3.00;99.90;;;-4.83;100.00;103259.28;4994520;28;20102;-72
2023/02/07 02:27:56;;;;;;;40.15;17.90;;;-3.00;99.90;;;-4.88;100.00;103259.41;5002915;28;20034;-73
2023/02/07 02:30:51;;;;;;;36.85;16.67;;;-3.00;99.90;;;-4.98;100.00;103261.50;5008007;28;20066;-72
2023/02/07 02:33:41;;;;;;;41.67;16.90;;;-3.10;99.90;;;-5.06;100.00;103263.56;5003013;28;20120;-72
2023/02/07 02:36:46;;;;;;;36.90;17.02;;;-3.20;99.90;;;-5.13;100.00;103256.72;5000873;28;20636;-72
2023/02/07 02:39:31;;;;;;;36.47;15.57;;;-3.20;99.90;;;-5.24;100.00;103257.91;4995876;28;20026;-72
2023/02/07 02:42:08;;;;;;;30.23;14.30;;;-3.30;99.90;;;-5.40;100.00;103257.53;5006839;28;20037;-74
2023/02/07 02:44:44;;;;;;;33.17;15.00;;;-3.60;99.90;;;-5.44;100.00;103261.22;5015178;28;20070;-72
2023/02/07 02:47:10;;;;;;;33.50;15.05;;;-3.70;99.90;;;-5.49;100.00;103258.69;4995049;28;20038;-72
2023/02/07 02:49:37;;;;;;;30.30;14.38;;;-3.80;99.90;;;-5.70;100.00;103254.00;4984258;28;20037;-72
2023/02/07 02:52:04;;;;;;;31.88;15.07;;;-4.00;99.90;;;-5.75;100.00;103253.28;5003347;28;20142;-72
2023/02/07 02:54:38;;;;;;;33.78;15.15;;;-4.00;99.90;;;-5.87;100.00;103255.41;4995584;28;20045;-72
2023/02/07 02:57:58;;;;;;;28.63;14.07;;;-4.10;99.90;;;-5.94;100.00;103257.34;4998663;28;20037;-72
2023/02/07 03:00:55;;;;;;;32.15;13.65;;;-4.30;99.90;;;-5.86;100.00;103258.91;4997407;28;20115;-72
2023/02/07 03:03:59;;;;;;;29.35;12.80;;;-4.20;99.90;;;-5.66;100.00;103248.56;5010023;28;20367;-72
2023/02/07 03:07:25;;;;;;;31.27;14.10;;;-4.00;99.90;;;-5.45;100.00;103256.81;5014625;28;20122;-72
2023/02/07 03:10:12;;;;;;;31.17;13.73;;;-3.70;99.90;;;-5.49;100.00;103247.19;4997448;28;20114;-72
2023/02/07 03:12:58;;;;;;;27.95;13.48;;;-3.70;99.90;;;-5.49;100.00;103252.50;4977695;28;20034;-72
2023/02/07 03:16:01;;;;;;;30.40;13.68;;;-3.70;99.90;;;-5.60;100.00;103258.16;4989225;28;20046;-71
2023/02/07 03:18:47;;;;;;;30.20;14.18;;;-3.80;99.90;;;-5.71;100.00;103258.47;4993594;28;20038;-72
2023/02/07 03:21:32;;;;;;;33.40;14.18;;;-3.90;99.90;;;-5.75;100.00;103255.94;5001468;28;20065;-72
2023/02/07 03:24:06;;;;;;;31.77;14.88;;;-4.00;99.90;;;-5.84;100.00;103257.97;4993852;28;20053;-71
2023/02/07 03:26:36;;;;;;;27.42;13.73;;;-4.10;99.90;;;-6.09;100.00;103252.53;5004701;28;20376;-71
2023/02/07 03:29:07;;;;;;;30.20;14.10;;;-4.30;99.90;;;-6.27;100.00;103248.56;5003452;28;20139;-71
2023/02/07 03:31:36;;;;;;;27.13;12.95;;;-4.40;99.90;;;-6.48;100.00;103250.94;4994458;28;20026;-72
2023/02/07 03:34:13;;;;;;;24.52;12.52;;;-4.60;99.90;;;-6.63;100.00;103244.25;5000108;28;20057;-72
2023/02/07 03:36:51;;;;;;;26.90;12.52;;;-4.80;99.90;;;-6.72;100.00;103248.00;4993236;28;20038;-72
2023/02/07 03:39:17;;;;;;;29.52;13.20;;;-4.90;99.90;;;-6.45;100.00;103249.97;4998436;28;20034;-72
2023/02/07 03:41:57;;;;;;;27.45;13.38;;;-4.80;99.90;;;-6.58;100.00;103247.66;4995354;28;20485;-71
2023/02/07 03:44:27;;;;;;;29.65;13.00;;;-4.90;99.90;;;-6.66;100.00;103242.53;5003227;28;21682;-71
2023/02/07 03:46:53;;;;;;;28.88;13.18;;;-4.80;99.90;;;-6.59;100.00;103235.28;4992941;28;20131;-72
2023/02/07 03:49:20;;;;;;;30.05;14.13;;;-4.80;99.90;;;-6.40;100.00;103237.41;4994558;28;20034;-71
2023/02/07 03:51:47;;;;;;;25.58;13.52;;;-4.70;99.90;;;-6.48;100.00;103234.09;4994292;28;20053;-70
2023/02/07 03:54:13;;;;;;;31.60;14.55;;;-4.80;99.90;;;-6.62;100.00;103231.81;4992910;28;20034;-70
2023/02/07 03:56:39;;;;;;;31.08;13.98;;;-4.80;99.90;;;-6.71;100.00;103238.25;4991900;28;20043;-71
2023/02/07 03:59:05;;;;;;;24.92;12.95;;;-4.90;99.90;;;-6.85;100.00;103231.53;4993049;28;20039;-71
2023/02/07 04:01:31;;;;;;;25.98;12.43;;;-5.00;99.90;;;-6.97;100.00;103242.44;4992535;28;20042;-71
2023/02/07 04:03:57;;;;;;;29.58;11.35;;;-5.20;99.90;;;-6.83;100.00;103231.47;5009568;28;20485;-71
2023/02/07 04:06:23;;;;;;;27.58;12.55;;;-5.10;99.90;;;-6.60;100.00;103244.16;4992933;28;20030;-71
2023/02/07 04:08:49;;;;;;;28.75;13.52;;;-5.00;99.90;;;-6.48;100.00;103250.94;4993524;28;20108;-71
2023/02/07 04:11:14;;;;;;;29.48;12.57;;;-4.80;99.90;;;-6.59;100.00;103242.34;5001876;28;20049;-72
2023/02/07 04:13:40;;;;;;;31.70;12.68;;;-4.80;99.90;;;-6.72;100.00;103258.63;4993204;28;20045;-71
2023/02/07 04:16:06;;;;;;;28.25;12.02;;;-4.90;99.90;;;-6.96;100.00;103250.38;4998503;28;20042;-71
2023/02/07 04:18:32;;;;;;;29.80;12.45;;;-5.10;99.90;;;-7.06;100.00;103246.19;5004883;28;20029;-71
2023/02/07 04:21:04;;;;;;;25.25;12.63;;;-5.20;99.90;;;-7.19;100.00;103244.75;4994575;28;20035;-72
2023/02/07 04:23:31;;;;;;;24.05;11.00;;;-5.40;99.90;;;-7.34;100.00;103249.50;4999309;28;20042;-72
2023/02/07 04:25:57;;;;;;;25.42;11.70;;;-5.50;99.90;;;-7.39;100.00;103246.97;4979804;28;20590;-72
2023/02/07 04:28:23;;;;;;;24.75;10.63;;;-5.50;99.90;;;-7.45;100.00;103246.22;4992067;28;20042;-72
2023/02/07 04:30:49;;;;;;;23.02;11.50;;;-5.60;99.90;;;-7.52;100.00;103246.38;4993303;28;20046;-73
2023/02/07 04:33:15;;;;;;;24.63;11.90;;;-5.70;99.90;;;-7.52;100.00;103256.09;4991827;28;20045;-73
2023/02/07 04:35:41;;;;;;;27.73;12.35;;;-5.70;99.90;;;-7.52;100.00;103256.09;4992498;28;20154;-73
2023/02/07 04:38:07;;;;;;;28.63;12.02;;;-5.60;99.90;;;-7.54;100.00;103252.63;4993456;28;20155;-73
2023/02/07 04:40:33;;;;;;;27.38;12.55;;;-5.60;99.90;;;-7.57;100.00;103247.38;4993196;28;20062;-73
2023/02/07 04:42:59;;;;;;;25.55;11.75;;;-5.70;99.90;;;-7.73;100.00;103237.09;4993532;28;20164;-74
2023/02/07 04:45:24;;;;;;;27.33;12.10;;;-5.80;99.90;;;-7.81;100.00;103242.59;4991819;28;20080;-73
2023/02/07 04:47:50;;;;;;;25.58;12.07;;;-5.90;99.90;;;-7.91;100.00;103245.47;4992507;28;20042;-72
2023/02/07 04:50:16;;;;;;;25.33;11.13;;;-6.00;99.90;;;-7.77;100.00;103246.03;4993485;28;20474;-74
2023/02/07 04:52:42;;;;;;;24.73;11.15;;;-6.00;99.90;;;-7.65;100.00;103252.84;4996582;28;20041;-72
2023/02/07 04:55:09;;;;;;;27.27;11.40;;;-5.90;99.90;;;-7.76;100.00;103247.78;5006652;28;20038;-73
2023/02/07 04:57:35;;;;;;;24.80;12.20;;;-6.00;99.90;;;-7.83;100.00;103235.56;4990918;28;20069;-73
2023/02/07 05:00:02;;;;;;;24.40;10.75;;;-6.00;99.90;;;-7.80;100.00;103241.69;4973935;28;20390;-73
2023/02/07 05:02:28;;;;;;;22.30;11.80;;;-6.00;99.90;;;-7.83;100.00;103247.03;4991405;28;20030;-73
2023/02/07 05:04:53;;;;;;;28.33;12.45;;;-6.00;99.90;;;-7.76;100.00;103253.06;4993843;28;20045;-72
2023/02/07 05:07:19;;;;;;;28.25;12.45;;;-6.00;99.90;;;-7.64;100.00;103251.09;4992749;28;20128;-75
2023/02/07 05:09:45;;;;;;;29.55;12.23;;;-5.90;99.90;;;-7.45;100.00;103249.75;5009088;28;20038;-73
2023/02/07 05:12:11;;;;;;;29.88;12.88;;;-5.70;99.90;;;-7.41;100.00;103250.56;5002879;28;20034;-73
2023/02/07 05:14:37;;;;;;;27.63;13.45;;;-5.50;99.90;;;-7.35;100.00;103254.84;4999208;28;20041;-73
2023/02/07 05:17:03;;;;;;;30.05;12.80;;;-5.50;99.90;;;-7.31;100.00;103248.56;4997979;28;20034;-74
2023/02/07 05:19:29;;;;;;;29.60;13.18;;;-5.40;99.90;;;-7.33;100.00;103245.94;4981996;28;20508;-73
2023/02/07 05:21:54;;;;;;;28.00;12.43;;;-5.40;99.90;;;-7.34;100.00;103246.84;4999348;28;20036;-73
2023/02/07 05:24:20;;;;;;;29.15;12.80;;;-5.40;99.90;;;-7.37;100.00;103238.97;4998887;28;20633;-73
2023/02/07 05:26:46;;;;;;;33.45;14.15;;;-5.50;99.90;;;-7.33;100.00;103234.47;5003849;28;20096;-74
2023/02/07 05:29:11;;;;;;;29.30;13.30;;;-5.50;99.90;;;-7.22;100.00;103235.06;5002889;28;20042;-72
2023/02/07 05:34:23;;;;;;;30.15;12.98;;;-5.30;99.90;;;-7.14;100.00;103245.50;4999193;28;20532;-72
2023/02/07 05:36:48;;;;;;;32.88;14.05;;;-5.20;99.90;;;-7.18;100.00;103233.22;4997747;28;20038;-73
2023/02/07 05:39:14;;;;;;;33.45;15.15;;;-5.20;99.90;;;-7.23;100.00;103242.19;4996949;28;20052;-71
2023/02/07 05:41:40;;;;;;;32.75;14.27;;;-5.30;99.90;;;-7.24;100.00;103243.09;4997581;28;20183;-72
2023/02/07 05:44:05;;;;;;;32.13;14.60;;;-5.40;99.90;;;-7.24;100.00;103252.81;5004736;28;20080;-72
2023/02/07 05:46:31;;;;;;;29.63;13.15;;;-5.40;99.90;;;-7.28;100.00;103251.16;5007065;28;20058;-72
2023/02/07 05:48:57;;;;;;;32.90;13.98;;;-5.40;99.90;;;-7.22;100.00;103253.66;5002210;28;20073;-72
2023/02/07 05:51:23;;;;;;;34.92;14.80;;;-5.30;99.90;;;-7.10;100.00;103253.38;4997554;28;20045;-72
2023/02/07 05:53:48;;;;;;;38.20;15.13;;;-5.20;99.90;;;-7.03;100.00;103253.22;5002156;28;20030;-72
2023/02/07 05:56:14;;;;;;;33.80;15.00;;;-5.20;99.90;;;-7.05;100.00;103249.72;5014037;28;20030;-72
2023/02/07 05:58:40;;;;;;;32.65;15.07;;;-5.20;99.90;;;-7.10;100.00;103256.03;4998847;28;20046;-72
2023/02/07 06:01:05;;;;;;;35.42;15.27;;;-5.20;99.90;;;-7.19;100.00;103260.66;5014288;28;20045;-72
2023/02/07 06:03:31;;;;;;;35.10;16.15;;;-5.30;99.90;;;-7.20;100.00;103256.28;4999252;28;20034;-74
2023/02/07 06:05:57;;;;;;;32.60;15.40;;;-5.40;99.90;;;-7.07;100.00;103257.72;5001455;28;20498;-74
2023/02/07 06:08:23;;;;;;;37.80;15.93;;;-5.20;99.90;;;-7.06;100.00;103250.63;4998484;28;20030;-74
2023/02/07 06:10:48;;;;;;;37.08;15.52;;;-5.10;99.90;;;-7.03;100.00;103250.56;4998584;28;20034;-74
2023/02/07 06:13:14;;;;;;;36.75;16.48;;;-5.10;99.90;;;-6.91;100.00;103260.84;4998858;28;20034;-74
2023/02/07 06:15:40;;;;;;;37.90;16.13;;;-5.00;99.90;;;-6.87;100.00;103256.34;4998478;28;20549;-73
2023/02/07 06:18:06;;;;;;;42.85;17.45;;;-5.00;99.90;;;-6.82;100.00;103258.00;4998580;28;20084;-73
2023/02/07 06:20:31;;;;;;;41.50;16.85;;;-4.90;99.90;;;-6.72;100.00;103265.72;4995126;28;20100;-73
2023/02/07 06:22:58;;;;;;;34.60;16.15;;;-4.80;99.90;;;-6.79;100.00;103255.25;5001759;28;20448;-74
2023/02/07 06:25:24;;;;;;;40.35;16.83;;;-4.80;99.90;;;-6.92;100.00;103256.47;4995578;28;20041;-73
2023/02/07 06:27:50;;;;;;;43.05;16.65;;;-5.00;99.90;;;-7.08;100.00;103264.81;4995572;28;21259;-72
2023/02/07 06:30:16;;;;;;;37.50;16.08;;;-5.20;99.90;;;-7.16;100.00;103269.44;4993584;28;20042;-72
2023/02/07 06:32:42;;;;;;;33.03;15.55;;;-5.30;99.90;;;-7.17;100.00;103275.63;4995307;28;20552;-72
2023/02/07 06:35:08;;;;;;;38.53;16.13;;;-5.30;99.90;;;-7.24;100.00;103272.28;4995292;28;20027;-73
2023/02/07 06:37:34;;;;;;;34.78;15.23;;;-5.30;99.90;;;-7.24;100.00;103276.69;4995289;28;20034;-73
2023/02/07 06:40:00;;;;;;;40.53;17.55;;;-5.40;99.90;;;-7.06;100.00;103278.03;4999974;28;20400;-73
2023/02/07 06:42:25;;;;;;;41.90;17.38;;;-5.20;99.90;;;-6.79;100.00;103276.50;4993889;28;20042;-72
2023/02/07 06:44:51;;;;;;;37.58;16.83;;;-5.00;99.90;;;-6.71;100.00;103276.31;4994648;28;20053;-72
2023/02/07 06:47:19;;;;;;;41.92;17.55;;;-4.80;99.90;;;-6.57;100.00;103278.59;4995143;28;20149;-71
2023/02/07 06:49:46;;;;;;;;;;;-4.70;99.90;;;-6.46;100.00;103277.44;4994557;28;20070;-72
2023/02/07 06:52:12;;;;;;;40.42;17.05;;;-4.60;99.90;;;-6.47;100.00;103279.25;5002407;28;20001;-72
2023/02/07 06:54:37;;;;;;;46.28;18.50;;;-4.60;99.90;;;-6.51;100.00;103277.56;4995368;28;20384;-73
2023/02/07 06:57:04;;;;;;;41.13;18.25;;;-4.60;99.90;;;-6.53;100.00;103274.06;5000260;28;20042;-71
2023/02/07 06:59:30;;;;;;;43.85;18.83;;;-4.60;99.90;;;-6.53;100.00;103277.59;4994289;28;20038;-72
2023/02/07 07:01:56;;;;;;;40.50;18.33;;;-4.60;99.90;;;-6.55;100.00;103278.56;4994838;28;20046;-72
2023/02/07 07:04:22;;;;;;;40.28;18.15;;;-4.60;99.90;;;-6.61;100.00;103276.94;4998234;28;20034;-73
2023/02/07 07:06:47;;;;;;;40.95;17.45;;;-4.70;99.90;;;-6.64;100.00;103287.63;4995295;28;20042;-73
2023/02/07 07:09:13;;;;;;;40.40;18.20;;;-4.80;99.90;;;-6.69;100.00;103289.53;4994856;28;20026;-73
2023/02/07 07:11:41;;;;;;;41.75;18.27;;;-4.80;99.90;;;-6.57;100.00;103306.94;4995079;28;20497;-73
2023/02/07 07:14:09;;;;;;;40.53;17.95;;;-4.80;99.90;;;-6.67;100.00;103298.31;4995374;28;20026;-73
2023/02/07 07:16:35;;;;;;;34.30;17.13;;;-4.90;99.90;;;-6.79;100.00;103303.03;4993797;28;20140;-73
2023/02/07 07:19:01;;;;;;;40.95;18.05;;;-5.00;99.90;;;-6.85;100.00;103304.97;4994400;28;20046;-72
2023/02/07 07:21:27;;;;;;;37.53;18.10;;;-5.10;99.90;;;-6.88;100.00;103300.63;4998688;28;20415;-72
2023/02/07 07:23:54;;;;;;;38.08;16.60;;;-5.10;99.90;;;-6.83;100.00;103292.53;5004905;28;20046;-73
2023/02/07 07:26:20;;;;;;;41.42;17.63;;;-5.00;99.90;;;-6.79;100.00;103303.03;4994501;28;20045;-73
2023/02/07 07:28:46;;;;;;;41.63;17.48;;;-5.00;99.90;;;-6.54;100.00;103304.19;4994230;28;20046;-73
2023/02/07 07:31:13;;;;;;;42.03;17.92;;;-4.80;99.90;;;-6.40;100.00;103317.13;4994702;28;20073;-72
2023/02/07 07:33:38;;;;;;;38.90;17.90;;;-4.70;99.90;;;-6.41;100.00;103315.38;5007114;28;20084;-73
2023/02/07 07:36:05;;;;;;;38.75;17.80;;;-4.70;99.90;;;-6.39;100.00;103316.22;4994434;28;20054;-73
2023/02/07 07:38:32;;;;;;;37.10;16.08;;;-4.60;99.90;;;-6.37;100.00;103306.41;4999623;28;20098;-72
2023/02/07 07:40:59;;;;;;;44.65;18.60;;;-4.60;99.90;;;-6.38;100.00;103308.22;5010783;28;20042;-73
2023/02/07 07:43:25;;;;;;;43.22;18.17;;;-4.60;99.90;;;-6.31;100.00;103310.69;5007290;28;20040;-73
2023/02/07 07:45:56;;;;;;;40.72;17.55;;;-4.50;99.90;;;-6.27;100.00;103315.91;5006474;28;20119;-74
2023/02/07 07:48:23;;;;;;;41.05;17.70;;;-4.50;99.90;;;-6.20;100.00;103303.34;5006046;28;20029;-71
2023/02/07 07:50:49;;;;;;;38.22;17.63;;;-4.40;99.90;;;-6.11;100.00;103308.38;5008337;28;20034;-70
2023/02/07 07:53:17;;;;;;;41.75;19.48;;;-4.30;99.90;;;-6.01;100.00;103305.47;5022173;28;20045;-70
2023/02/07 07:55:52;;;;;;;48.88;20.70;;;-4.20;99.90;;;-5.92;100.00;103308.69;4999013;28;20042;-72
2023/02/07 07:58:19;;;;;;;50.42;20.98;;;-4.10;99.90;;;-5.88;100.00;103288.22;5005521;28;20037;-71
2023/02/07 08:00:46;;;;;;;51.38;20.83;;;-4.00;99.90;;;-5.70;100.00;103296.56;5000510;28;20433;-71
2023/02/07 08:03:13;;;;;;;56.60;21.80;;;-3.80;99.90;;;-5.59;100.00;103296.25;5006292;28;20196;-72
2023/02/07 08:05:39;;;;;;;59.53;22.65;;;-3.70;99.90;;;-5.46;100.00;103302.06;5004491;28;20655;-71
2023/02/07 08:08:05;;;;;;;58.13;22.35;;;-3.60;99.90;;;-5.33;100.00;103311.44;4994049;28;20034;-71
2023/02/07 08:10:32;;;;;;;59.65;23.42;;;-3.50;99.90;;;-5.20;100.00;103310.13;4998630;28;20030;-71
2023/02/07 08:12:57;;;;;;;61.50;24.30;;;-3.30;99.90;;;-5.04;100.00;103307.00;5007010;28;20034;-72
2023/02/07 08:15:24;;;;;;;61.10;24.30;;;-3.20;99.90;;;-4.87;100.00;103308.25;5002248;28;20448;-72
2023/02/07 08:17:50;;;;;;;66.90;25.33;;;-3.10;99.90;;;-4.74;100.00;103304.25;4999937;28;20434;-71
2023/02/07 08:20:16;;;;;;;64.47;25.25;;;-2.90;99.90;;;-4.64;100.00;103307.47;5008886;28;20065;-70
2023/02/07 08:22:41;;;;;;;63.38;25.42;;;-2.80;99.90;;;-4.48;100.00;103306.03;5008596;28;20040;-70
2023/02/07 08:25:08;;;;;;;61.10;24.42;;;-2.70;99.90;;;-4.34;100.00;103302.91;5004334;28;20026;-71
2023/02/07 08:27:34;;;;;;;69.60;25.90;;;-2.60;99.90;;;-4.29;100.00;103300.03;5002701;28;20504;-70
2023/02/07 08:30:00;;;;;;;70.68;26.05;;;-2.50;99.90;;;-4.21;100.00;103290.00;5003099;28;20038;-70
2023/02/07 08:32:27;;;;;;;61.97;26.13;;;-2.40;99.90;;;-4.05;100.00;103284.09;4993001;28;20057;-70
2023/02/07 08:34:53;;;;;;;66.63;25.67;;;-2.30;99.90;;;-3.96;100.00;103275.78;4988400;28;20116;-71
2023/02/07 08:37:19;;;;;;;64.28;25.60;;;-2.20;99.90;;;-3.83;100.00;103283.31;4990619;28;20330;-71
2023/02/07 08:39:44;;;;;;;60.97;24.90;;;-2.10;99.90;;;-3.80;100.00;103288.53;4992192;28;20526;-70
2023/02/07 08:42:10;;;;;;;62.83;26.23;;;-2.10;99.90;;;-3.73;100.00;103292.69;4992468;28;20034;-71
2023/02/07 08:44:37;;;;;;;60.10;25.27;;;-2.00;99.90;;;-3.66;100.00;103285.34;4991572;28;20069;-70
2023/02/07 08:47:03;;;;;;;61.67;25.00;;;-2.00;99.90;;;-3.59;100.00;103292.16;4998137;28;20631;-71
2023/02/07 08:49:29;;;;;;;59.00;26.40;;;-1.90;99.90;;;-3.45;100.00;103291.63;5003300;28;20033;-73
2023/02/07 08:51:55;;;;;;;58.45;24.23;;;-1.80;99.90;;;-3.36;100.00;103285.97;5002110;28;20080;-71
2023/02/07 08:54:21;;;;;;;58.75;24.35;;;-1.70;99.90;;;-3.25;100.00;103284.66;4998667;28;20034;-71
2023/02/07 08:56:47;;;;;;;51.22;23.48;;;-1.60;99.90;;;-3.12;100.00;103285.91;5001329;28;20100;-71
2023/02/07 08:59:13;;;;;;;55.85;24.60;;;-1.50;99.90;;;-3.01;100.00;103295.28;5001369;28;20112;-71
2023/02/07 09:01:38;;;;;;;52.95;23.95;;;-1.40;99.90;;;-2.94;100.00;103304.78;5003644;28;20057;-71
2023/02/07 09:04:04;;;;;;;48.13;23.58;;;-1.40;99.90;;;-2.89;100.00;103308.16;5006915;28;20030;-70
2023/02/07 09:06:30;;;;;;;51.83;22.58;;;-1.30;99.90;;;-2.80;100.00;103314.91;5003306;28;20042;-71
2023/02/07 09:08:56;;;;;;;46.28;22.35;;;-1.30;99.90;;;-2.73;100.00;103319.09;4997642;28;20045;-69
2023/02/07 09:11:22;;;;;;;41.03;21.02;;;-1.20;99.90;;;-2.63;100.00;103324.91;5001816;28;20049;-70
2023/02/07 09:13:48;;;;;;;43.00;22.55;;;-1.10;99.90;;;-2.61;100.00;103325.72;5000574;28;20038;-70
2023/02/07 09:16:14;;;;;;;39.53;19.15;;;-1.00;99.90;;;-2.56;100.00;103323.72;4997941;28;20448;-69
2023/02/07 09:18:40;;;;;;;40.40;19.95;;;-1.00;99.90;;;-2.51;100.00;103332.41;4998421;28;20049;-70
2023/02/07 09:21:06;;;;;;;42.05;20.42;;;-0.90;99.90;;;-2.39;100.00;103330.13;5005815;28;20034;-71
2023/02/07 09:23:34;;;;;;;37.95;19.20;;;-0.80;99.90;;;-2.32;100.00;103320.94;4992720;28;20037;-70
2023/02/07 09:26:03;;;;;;;;;;;-0.70;99.90;;;-2.22;100.00;103319.59;4991134;28;20334;-70
2023/02/07 09:28:29;;;;;;;34.25;17.30;;;-0.60;99.90;;;-2.17;100.00;103325.59;4989849;28;20664;-70
2023/02/07 09:30:55;;;;;;;37.13;18.98;;;-0.50;99.90;;;-1.94;100.00;103323.72;4990083;28;20125;-70
2023/02/07 09:33:23;;;;;;;34.47;18.35;;;-0.40;99.90;;;-1.77;100.00;103322.94;4989378;28;20080;-70
2023/02/07 09:35:50;;;;;;;33.13;18.75;;;-0.20;99.90;;;-1.78;100.00;103313.19;4989685;28;20089;-70
2023/02/07 09:38:24;;;;;;;30.92;16.45;;;-0.20;99.90;;;-1.80;100.00;103317.75;5003408;28;20038;-70
2023/02/07 09:40:52;;;;;;;29.75;17.05;;;-0.20;99.90;;;-1.70;100.00;103315.50;4995814;28;20050;-71
2023/02/07 09:43:56;;;;;;;30.40;16.00;;;-0.20;99.90;;;-1.69;100.00;103309.22;4973303;28;20085;-71
2023/02/07 09:46:31;;;;;;;25.40;14.15;;;0.00;99.90;;;-1.54;100.00;103317.50;4989689;28;20352;-71
2023/02/07 09:49:33;;;;;;;26.38;13.95;;;0.10;99.90;;;-1.26;100.00;103310.84;5004916;28;20047;-71
2023/02/07 09:52:02;;;;;;;27.10;15.40;;;0.20;99.90;;;-1.16;100.00;103318.38;4984370;28;20050;-71
2023/02/07 09:54:41;;;;;;;23.75;13.15;;;0.40;99.90;;;-1.03;100.00;103318.63;5000905;28;20395;-71
2023/02/07 09:57:19;;;;;;;27.45;15.07;;;0.60;99.90;;;-0.66;100.00;103315.94;4997760;28;20049;-71
2023/02/07 10:00:19;;;;;;;28.92;14.85;;;1.10;99.90;;;-0.61;100.00;103310.34;4992154;28;20351;-71
2023/02/07 10:02:57;;;;;;;26.48;14.75;;;1.70;99.90;;;-0.23;100.00;103312.88;4993544;28;20545;-71
2023/02/07 10:05:39;;;;;;;22.90;13.40;;;2.80;99.90;;;0.32;100.00;103308.19;4993492;28;20096;-71
2023/02/07 10:08:11;;;;;;;22.85;13.30;;;4.00;99.90;;;0.83;95.64;103297.31;4993613;28;20042;-71
2023/02/07 10:10:45;;;;;;;21.30;12.68;;;4.80;99.90;;;1.68;90.25;103294.16;5006293;28;20121;-71